ESSV/VBY METAR and TAF weather

Enter ICAO airport designator
Station Type Date Time Source
ESSV METAR 2019/02/23 17:50 UTC NOAA

ESSV 231750Z 26010KT CAVOK 03/02 Q1033 R21/12//88


Station Type Date Time Source
ESSV Decoded METAR 2019/02/23 17:50 UTC NOAA

Visby Flygplats, Sweden (ESSV) 57-40N 018-21E 47M
Feb 23, 2019 - 12:50 PM EST / 2019.02.23 1750 UTC
Wind: from the W (260 degrees) at 12 MPH (10 KT):0
Visibility: greater than 7 mile(s):0
Temperature: 37 F (3 C)
Dew Point: 35 F (2 C)
Relative Humidity: 93%
Pressure (altimeter): 30.50 in. Hg (1033 hPa)
ob: ESSV 231750Z 26010KT CAVOK 03/02 Q1033 R21/12//88
cycle: 18

Station Type Date Time Source
ESSV TAF 2017/09/20 09:39 UTC NOAA

TAF COR TAF COR ESSV 200840Z 2009/2021 10005KT 9999 BKN030 PROB40 2009/2016 4000 TS SHRA BKN015CB


Example: see airport list